This is the latest recevied weather packets stored in our database for station/object SQ8NA-15. If no packets are shown the sender has not sent any weather packets the latest 10 day(s).
| Time | Temp. | Humidity | Pressure | Rain* | Wind** | Luminosity | Snow |
|---|---|---|---|---|---|---|---|
| 1787636065 | 10.56° C | 86% | 982.8 hPa | 0 mm | - | 90 W/m² | - |
| 1787635452 | 10.56° C | 87% | 982.9 hPa | 0 mm | - | 88 W/m² | - |
| 1787634215 | 10.56° C | 86% | 982.9 hPa | 0 mm | - | 77 W/m² | - |
| 1787633601 | 10° C | 85% | 982.9 hPa | 0 mm | - | 62 W/m² | - |
| 1787632991 | 8.89° C | 89% | 982.9 hPa | 0 mm | - | 44 W/m² | - |
| 1787631765 | 8.33° C | 96% | 983 hPa | 0 mm | - | 25 W/m² | - |
| 1787631151 | 7.78° C | 97% | 982.8 hPa | 0 mm | - | 23 W/m² | - |
| 1787630541 | 6.67° C | 97% | 982.8 hPa | 0 mm | - | 17 W/m² | - |
| 1787629315 | 6.67° C | 97% | 982.9 hPa | 0 mm | - | 4 W/m² | - |
| 1787628701 | 7.22° C | 97% | 982.9 hPa | 0 mm | - | 2 W/m² | - |
| 1787628090 | 6.67° C | 97% | 982.7 hPa | 0 mm | - | 1 W/m² | - |
| 1787626865 | 6.67° C | 97% | 982.7 hPa | 0 mm | - | 0 W/m² | - |
| 1787626250 | 6.67° C | 97% | 982.9 hPa | 0 mm | - | 0 W/m² | - |
| 1787625640 | 6.67° C | 97% | 982.9 hPa | 0 mm | - | 0 W/m² | - |
| 1787624415 | 6.67° C | 97% | 983 hPa | 0 mm | - | 0 W/m² | - |
| 1787623800 | 6.67° C | 97% | 983.1 hPa | 0 mm | - | 0 W/m² | - |
| 1787623190 | 6.67° C | 97% | 983.1 hPa | 0 mm | - | 0 W/m² | - |
| 1787621952 | 6.67° C | 96% | 983.1 hPa | 0 mm | - | 0 W/m² | - |
| 1787621338 | 6.67° C | 97% | 983.3 hPa | 0 mm | - | 0 W/m² | - |
| 1787620728 | 6.67° C | 96% | 983.5 hPa | 0 mm | - | 0 W/m² | - |
| 1787619502 | 7.22° C | 96% | 983.8 hPa | 0 mm | - | 0 W/m² | - |
| 1787618888 | 7.22° C | 96% | 983.8 hPa | 0 mm | - | 0 W/m² | - |
| 1787618278 | 7.22° C | 96% | 984 hPa | 0 mm | - | 0 W/m² | - |
| 1787617052 | 7.22° C | 96% | 984.3 hPa | 0 mm | - | 0 W/m² | - |
| 1787616438 | 7.78° C | 96% | 984.5 hPa | 0 mm | - | 0 W/m² | - |
* Rain latest hour (hover to see other rain measurements)
** Current wind speed in m/s (hover to see current wind gust speed)